Time,TemperatureF,DewpointF,PressureIn,WindDirection,WindDirectionDegrees,WindSpeedMPH,WindSpeedGustMPH,Humidity,HourlyPrecipIn,Conditions,Clouds,dailyrainin,SoftwareType,DateUTC
2013-06-22 00:00:00,59.1,54.6,30.13,NNW,346,0.0,3.0,85,0.00,,,0.00,Wunderground v.1.15,2013-06-22 04:00:00,
2013-06-22 00:05:00,59.0,54.5,30.13,NNW,346,0.0,3.0,85,0.00,,,0.00,Wunderground v.1.15,2013-06-22 04:05:00,
2013-06-22 00:10:00,59.0,54.5,30.13,NNW,346,0.0,3.0,85,0.00,,,0.00,Wunderground v.1.15,2013-06-22 04:10:00,
2013-06-22 00:15:00,59.0,54.8,30.13,NNW,346,0.0,3.0,86,0.00,,,0.00,Wunderground v.1.15,2013-06-22 04:15:00,
2013-06-22 00:20:00,59.0,54.8,30.13,NNW,346,0.0,3.0,86,0.00,,,0.00,Wunderground v.1.15,2013-06-22 04:20:00,
2013-06-22 00:25:00,58.9,55.0,30.13,NNW,346,0.0,3.0,87,0.00,,,0.00,Wunderground v.1.15,2013-06-22 04:25:00,
2013-06-22 00:35:00,58.6,54.7,30.13,NNW,346,0.0,3.0,87,0.00,,,0.00,Wunderground v.1.15,2013-06-22 04:35:00,
2013-06-22 00:40:00,58.6,54.7,30.13,NNW,346,0.0,3.0,87,0.00,,,0.00,Wunderground v.1.15,2013-06-22 04:40:00,
2013-06-22 00:45:00,58.4,54.9,30.13,NNW,346,0.0,3.0,88,0.00,,,0.00,Wunderground v.1.15,2013-06-22 04:45:00,
2013-06-22 00:50:00,58.4,54.9,30.13,NNW,346,0.0,3.0,88,0.00,,,0.00,Wunderground v.1.15,2013-06-22 04:50:00,
2013-06-22 00:55:00,58.3,54.8,30.12,NNW,346,0.0,3.0,88,0.00,,,0.00,Wunderground v.1.15,2013-06-22 04:55:00,
2013-06-22 01:00:00,58.3,54.8,30.12,NNW,346,0.0,3.0,88,0.00,,,0.00,Wunderground v.1.15,2013-06-22 05:00:00,
2013-06-22 01:05:00,58.2,55.0,30.12,NNW,346,0.0,3.0,89,0.00,,,0.00,Wunderground v.1.15,2013-06-22 05:05:00,
2013-06-22 09:35:00,74.4,66.0,30.08,SSE,150,2.0,2.0,75,0.00,,,0.00,Wunderground v.1.15,2013-06-22 13:35:00,
2013-06-22 09:40:00,74.6,66.5,30.08,SSE,153,2.0,2.0,76,0.00,,,0.00,Wunderground v.1.15,2013-06-22 13:40:00,
2013-06-22 09:45:00,75.2,66.3,30.08,SSE,153,1.0,1.0,74,0.00,,,0.00,Wunderground v.1.15,2013-06-22 13:45:00,
2013-06-22 09:55:00,76.4,67.1,30.07,SSE,157,1.0,1.0,73,0.00,,,0.00,Wunderground v.1.15,2013-06-22 13:55:00,
2013-06-22 10:00:00,77.0,68.1,30.07,SSE,157,1.0,1.0,74,0.00,,,0.00,Wunderground v.1.15,2013-06-22 14:00:00,
2013-06-22 10:05:00,77.3,67.2,30.07,SSE,160,1.0,1.0,71,0.00,,,0.00,Wunderground v.1.15,2013-06-22 14:05:00,
2013-06-22 10:10:00,77.1,67.0,30.07,SSE,154,1.0,2.0,71,0.00,,,0.00,Wunderground v.1.15,2013-06-22 14:10:00,
2013-06-22 10:15:00,76.5,66.0,30.08,SE,141,2.0,2.0,70,0.00,,,0.00,Wunderground v.1.15,2013-06-22 14:15:00,
2013-06-22 10:20:00,76.1,66.4,30.08,SE,144,1.0,1.0,72,0.00,,,0.00,Wunderground v.1.15,2013-06-22 14:20:00,
2013-06-22 10:25:00,75.9,66.6,30.08,SE,146,1.0,1.0,73,0.00,,,0.00,Wunderground v.1.15,2013-06-22 14:25:00,
2013-06-22 10:30:00,75.8,66.5,30.08,SSE,148,1.0,1.0,73,0.00,,,0.00,Wunderground v.1.15,2013-06-22 14:30:00,
2013-06-22 10:39:00,76.5,67.6,30.08,SSE,149,1.0,1.0,74,0.00,,,0.00,Wunderground v.1.15,2013-06-22 14:39:00,
2013-06-22 10:45:00,77.5,68.2,30.07,SE,144,1.0,6.0,73,0.00,,,0.00,Wunderground v.1.15,2013-06-22 14:45:00,
2013-06-22 10:50:00,78.7,68.9,30.06,SSE,151,2.0,2.0,72,0.00,,,0.00,Wunderground v.1.15,2013-06-22 14:50:00,
2013-06-22 10:55:00,79.5,68.9,30.06,SSE,152,2.0,5.0,70,0.00,,,0.00,Wunderground v.1.15,2013-06-22 14:55:00,
2013-06-22 11:00:00,80.0,68.5,30.07,SSE,158,3.0,3.0,68,0.00,,,0.00,Wunderground v.1.15,2013-06-22 15:00:00,
2013-06-22 11:05:00,79.8,68.7,30.06,SSE,167,3.0,6.0,69,0.00,,,0.00,Wunderground v.1.15,2013-06-22 15:05:00,
2013-06-22 11:10:00,79.6,69.0,30.06,SSE,161,2.0,2.0,70,0.00,,,0.00,Wunderground v.1.15,2013-06-22 15:10:00,
2013-06-22 11:20:00,79.4,68.8,30.06,SSE,156,1.0,6.0,70,0.00,,,0.00,Wunderground v.1.15,2013-06-22 15:20:00,
2013-06-22 11:25:00,79.3,69.1,30.06,SSE,154,1.0,6.0,71,0.00,,,0.00,Wunderground v.1.15,2013-06-22 15:25:00,
2013-06-22 11:30:00,79.4,68.8,30.06,SSE,161,1.0,6.0,70,0.00,,,0.00,Wunderground v.1.15,2013-06-22 15:30:00,
2013-06-22 11:35:00,80.0,69.7,30.06,SSE,155,1.0,6.0,71,0.00,,,0.00,Wunderground v.1.15,2013-06-22 15:35:00,
2013-06-22 11:40:00,80.7,70.4,30.06,SSE,156,2.0,2.0,71,0.00,,,0.00,Wunderground v.1.15,2013-06-22 15:40:00,
2013-06-22 11:45:00,81.4,69.8,30.06,SSE,150,1.0,6.0,68,0.00,,,0.00,Wunderground v.1.15,2013-06-22 15:45:00,
2013-06-22 11:50:00,81.6,69.1,30.06,SE,141,1.0,1.0,66,0.00,,,0.00,Wunderground v.1.15,2013-06-22 15:50:00,
2013-06-22 11:55:00,81.9,70.3,30.06,SSE,153,1.0,6.0,68,0.00,,,0.00,Wunderground v.1.15,2013-06-22 15:55:00,
2013-06-22 12:05:00,82.4,69.9,30.06,SSE,151,1.0,6.0,66,0.00,,,0.00,Wunderground v.1.15,2013-06-22 16:05:00,
2013-06-22 12:10:00,83.0,69.6,30.06,SSE,151,1.0,1.0,64,0.00,,,0.00,Wunderground v.1.15,2013-06-22 16:10:00,
2013-06-22 12:15:00,83.2,68.3,30.06,SSE,147,1.0,6.0,61,0.00,,,0.00,Wunderground v.1.15,2013-06-22 16:15:00,
2013-06-22 12:20:00,83.7,69.3,30.06,South,173,1.0,6.0,62,0.00,,,0.00,Wunderground v.1.15,2013-06-22 16:20:00,
2013-06-22 12:25:00,84.3,69.4,30.05,South,178,1.0,6.0,61,0.00,,,0.00,Wunderground v.1.15,2013-06-22 16:25:00,
2013-06-22 12:30:00,84.7,68.8,30.05,South,172,1.0,6.0,59,0.00,,,0.00,Wunderground v.1.15,2013-06-22 16:30:00,
2013-06-22 12:40:00,84.4,68.5,30.05,South,173,0.0,6.0,59,0.00,,,0.00,Wunderground v.1.15,2013-06-22 16:40:00,
2013-06-22 12:45:00,84.5,70.5,30.05,SW,217,0.0,6.0,63,0.00,,,0.00,Wunderground v.1.15,2013-06-22 16:45:00,
2013-06-22 12:50:00,84.8,68.9,30.05,SW,234,1.0,6.0,59,0.00,,,0.00,Wunderground v.1.15,2013-06-22 16:50:00,
2013-06-22 12:55:00,84.8,69.9,30.05,SSW,209,1.0,6.0,61,0.00,,,0.00,Wunderground v.1.15,2013-06-22 16:55:00,
2013-06-22 13:00:00,84.9,69.5,30.04,South,169,1.0,6.0,60,0.00,,,0.00,Wunderground v.1.15,2013-06-22 17:00:00,
2013-06-22 13:05:00,85.1,70.1,30.04,WSW,250,0.0,6.0,61,0.00,,,0.00,Wunderground v.1.15,2013-06-22 17:05:00,
2013-06-22 13:10:00,85.0,69.1,30.03,WSW,245,0.0,6.0,59,0.00,,,0.00,Wunderground v.1.15,2013-06-22 17:10:00,
2013-06-22 13:20:00,85.1,70.1,30.03,WSW,242,0.0,6.0,61,0.00,,,0.00,Wunderground v.1.15,2013-06-22 17:20:00,
2013-06-22 13:25:00,85.2,69.3,30.03,West,269,1.0,6.0,59,0.00,,,0.00,Wunderground v.1.15,2013-06-22 17:25:00,
2013-06-22 13:30:00,84.9,69.5,30.03,West,273,1.0,1.0,60,0.00,,,0.00,Wunderground v.1.15,2013-06-22 17:30:00,
2013-06-22 13:35:00,84.9,69.5,30.03,NNE,28,1.0,6.0,60,0.00,,,0.00,Wunderground v.1.15,2013-06-22 17:35:00,
2013-06-22 13:40:00,85.1,70.1,30.03,NW,306,1.0,1.0,61,0.00,,,0.00,Wunderground v.1.15,2013-06-22 17:40:00,
2013-06-22 13:45:00,85.2,69.7,30.03,SW,221,1.0,6.0,60,0.00,,,0.00,Wunderground v.1.15,2013-06-22 17:45:00,
2013-06-22 13:55:00,85.9,68.9,30.03,West,259,1.0,6.0,57,0.00,,,0.00,Wunderground v.1.15,2013-06-22 17:55:00,
2013-06-22 14:00:00,85.4,69.4,30.03,SW,217,1.0,1.0,59,0.00,,,0.00,Wunderground v.1.15,2013-06-22 18:00:00,
2013-06-22 14:05:00,84.6,69.2,30.03,WSW,258,1.0,6.0,60,0.00,,,0.00,Wunderground v.1.15,2013-06-22 18:05:00,
2013-06-22 14:10:00,84.4,68.5,30.03,SSE,153,0.0,6.0,59,0.00,,,0.00,Wunderground v.1.15,2013-06-22 18:10:00,
2013-06-22 14:15:00,84.2,69.8,30.03,SW,216,1.0,6.0,62,0.00,,,0.00,Wunderground v.1.15,2013-06-22 18:15:00,
2013-06-22 14:20:00,84.0,69.1,30.03,West,269,1.0,1.0,61,0.00,,,0.00,Wunderground v.1.15,2013-06-22 18:20:00,
2013-06-22 14:30:00,84.4,70.4,30.02,WSW,254,0.0,6.0,63,0.00,,,0.00,Wunderground v.1.15,2013-06-22 18:30:00,
2013-06-22 14:35:00,84.7,69.8,30.02,WSW,255,0.0,6.0,61,0.00,,,0.00,Wunderground v.1.15,2013-06-22 18:35:00,
2013-06-22 14:40:00,84.5,69.6,30.02,SW,235,0.0,6.0,61,0.00,,,0.00,Wunderground v.1.15,2013-06-22 18:40:00,
2013-06-22 14:45:00,84.2,69.3,30.01,South,177,1.0,6.0,61,0.00,,,0.00,Wunderground v.1.15,2013-06-22 18:45:00,
2013-06-22 14:50:00,83.6,69.2,30.01,SSE,160,0.0,6.0,62,0.00,,,0.00,Wunderground v.1.15,2013-06-22 18:50:00,
2013-06-22 14:55:00,83.4,69.0,30.01,WSW,255,0.0,6.0,62,0.00,,,0.00,Wunderground v.1.15,2013-06-22 18:55:00,
2013-06-22 15:00:00,83.5,69.6,30.01,WSW,246,0.0,6.0,63,0.00,,,0.00,Wunderground v.1.15,2013-06-22 19:00:00,
2013-06-22 15:10:00,83.8,69.4,30.02,WSW,249,1.0,1.0,62,0.00,,,0.00,Wunderground v.1.15,2013-06-22 19:10:00,
2013-06-22 15:15:00,84.0,69.6,30.02,West,277,0.0,6.0,62,0.00,,,0.00,Wunderground v.1.15,2013-06-22 19:15:00,
2013-06-22 15:20:00,84.3,70.3,30.02,West,261,0.0,6.0,63,0.00,,,0.00,Wunderground v.1.15,2013-06-22 19:20:00,
2013-06-22 15:25:00,84.3,70.3,30.02,West,261,0.0,6.0,63,0.00,,,0.00,Wunderground v.1.15,2013-06-22 19:25:00,
2013-06-22 15:30:00,84.4,70.9,30.01,WSW,258,0.0,6.0,64,0.00,,,0.00,Wunderground v.1.15,2013-06-22 19:30:00,
2013-06-22 15:35:00,84.2,69.8,30.01,WSW,258,0.0,6.0,62,0.00,,,0.00,Wunderground v.1.15,2013-06-22 19:35:00,
2013-06-22 15:40:00,84.1,70.1,30.01,WSW,256,0.0,6.0,63,0.00,,,0.00,Wunderground v.1.15,2013-06-22 19:40:00,
2013-06-22 15:50:00,84.2,70.2,30.01,WSW,256,0.0,6.0,63,0.00,,,0.00,Wunderground v.1.15,2013-06-22 19:50:00,
2013-06-22 15:55:00,84.3,70.8,30.01,WSW,255,0.0,6.0,64,0.00,,,0.00,Wunderground v.1.15,2013-06-22 19:55:00,
2013-06-22 16:00:00,84.6,71.5,30.01,WSW,255,0.0,6.0,65,0.00,,,0.00,Wunderground v.1.15,2013-06-22 20:00:00,
2013-06-22 16:05:00,84.7,71.6,30.01,WSW,255,0.0,6.0,65,0.00,,,0.00,Wunderground v.1.15,2013-06-22 20:05:00,
2013-06-22 16:10:00,84.6,71.5,30.01,WSW,255,0.0,6.0,65,0.00,,,0.00,Wunderground v.1.15,2013-06-22 20:10:00,
2013-06-22 16:15:00,84.3,70.3,30.01,WSW,255,0.0,6.0,63,0.00,,,0.00,Wunderground v.1.15,2013-06-22 20:15:00,
2013-06-22 16:25:00,83.7,70.2,30.01,WSW,255,0.0,6.0,64,0.00,,,0.00,Wunderground v.1.15,2013-06-22 20:25:00,
2013-06-22 16:30:00,83.6,70.6,30.00,WSW,255,0.0,6.0,65,0.00,,,0.00,Wunderground v.1.15,2013-06-22 20:30:00,
2013-06-22 16:35:00,83.4,70.4,29.99,WSW,255,0.0,6.0,65,0.00,,,0.00,Wunderground v.1.15,2013-06-22 20:35:00,
2013-06-22 16:40:00,83.3,70.8,29.99,WSW,255,0.0,6.0,66,0.00,,,0.00,Wunderground v.1.15,2013-06-22 20:40:00,
2013-06-22 16:45:00,83.4,72.2,29.98,WSW,255,0.0,6.0,69,0.00,,,0.00,Wunderground v.1.15,2013-06-22 20:45:00,
2013-06-22 16:55:00,83.4,71.3,29.97,WSW,255,0.0,6.0,67,0.00,,,0.00,Wunderground v.1.15,2013-06-22 20:55:00,
2013-06-22 17:00:00,84.1,70.6,29.97,WSW,255,0.0,6.0,64,0.00,,,0.00,Wunderground v.1.15,2013-06-22 21:00:00,
2013-06-22 17:05:00,84.9,72.3,29.97,WSW,255,0.0,6.0,66,0.00,,,0.00,Wunderground v.1.15,2013-06-22 21:05:00,
2013-06-22 17:10:00,85.1,71.5,29.97,WSW,255,0.0,6.0,64,0.00,,,0.00,Wunderground v.1.15,2013-06-22 21:10:00,
2013-06-22 17:15:00,85.3,70.3,29.97,WSW,255,0.0,6.0,61,0.00,,,0.00,Wunderground v.1.15,2013-06-22 21:15:00,
2013-06-22 17:20:00,85.5,71.5,29.97,WSW,255,0.0,6.0,63,0.00,,,0.00,Wunderground v.1.15,2013-06-22 21:20:00,
2013-06-22 17:25:00,85.8,71.3,29.96,WSW,255,0.0,6.0,62,0.00,,,0.00,Wunderground v.1.15,2013-06-22 21:25:00,
2013-06-22 17:35:00,85.9,71.8,29.96,WSW,255,0.0,6.0,63,0.00,,,0.00,Wunderground v.1.15,2013-06-22 21:35:00,
2013-06-22 17:40:00,86.3,71.7,29.96,WSW,255,0.0,6.0,62,0.00,,,0.00,Wunderground v.1.15,2013-06-22 21:40:00,
2013-06-22 17:45:00,86.6,71.1,29.96,WSW,255,0.0,6.0,60,0.00,,,0.00,Wunderground v.1.15,2013-06-22 21:45:00,
2013-06-22 17:50:00,86.5,71.0,29.96,WSW,255,0.0,6.0,60,0.00,,,0.00,Wunderground v.1.15,2013-06-22 21:50:00,
2013-06-22 17:55:00,86.4,70.9,29.96,West,261,0.0,6.0,60,0.00,,,0.00,Wunderground v.1.15,2013-06-22 21:55:00,
2013-06-22 18:00:00,86.3,70.8,29.96,West,261,0.0,6.0,60,0.00,,,0.00,Wunderground v.1.15,2013-06-22 22:00:00,
2013-06-22 18:10:00,86.3,70.3,29.95,West,261,0.0,6.0,59,0.00,,,0.00,Wunderground v.1.15,2013-06-22 22:10:00,
2013-06-22 18:15:00,86.0,70.5,29.95,West,261,0.0,6.0,60,0.00,,,0.00,Wunderground v.1.15,2013-06-22 22:15:00,
2013-06-22 18:20:00,85.7,70.7,29.95,West,261,0.0,6.0,61,0.00,,,0.00,Wunderground v.1.15,2013-06-22 22:20:00,
2013-06-22 18:25:00,85.6,71.6,29.96,West,261,0.0,6.0,63,0.00,,,0.00,Wunderground v.1.15,2013-06-22 22:25:00,
2013-06-22 18:30:00,85.6,71.1,29.95,West,261,0.0,6.0,62,0.00,,,0.00,Wunderground v.1.15,2013-06-22 22:30:00,
2013-06-22 18:35:00,85.9,70.9,29.95,West,261,0.0,6.0,61,0.00,,,0.00,Wunderground v.1.15,2013-06-22 22:35:00,
2013-06-22 18:40:00,86.2,71.2,29.95,West,261,0.0,6.0,61,0.00,,,0.00,Wunderground v.1.15,2013-06-22 22:40:00,
2013-06-22 18:50:00,86.6,71.1,29.95,West,261,0.0,6.0,60,0.00,,,0.00,Wunderground v.1.15,2013-06-22 22:50:00,
2013-06-22 18:55:00,86.9,71.8,29.95,West,261,0.0,6.0,61,0.00,,,0.00,Wunderground v.1.15,2013-06-22 22:55:00,
2013-06-22 19:00:00,86.6,71.5,29.95,West,261,0.0,6.0,61,0.00,,,0.00,Wunderground v.1.15,2013-06-22 23:00:00,
2013-06-22 19:05:00,86.3,71.3,29.95,West,261,0.0,6.0,61,0.00,,,0.00,Wunderground v.1.15,2013-06-22 23:05:00,
2013-06-22 19:10:00,85.8,70.8,29.95,West,261,0.0,6.0,61,0.00,,,0.00,Wunderground v.1.15,2013-06-22 23:10:00,
2013-06-22 19:15:00,85.4,71.4,29.95,West,261,0.0,6.0,63,0.00,,,0.00,Wunderground v.1.15,2013-06-22 23:15:00,
2013-06-22 19:20:00,85.1,71.5,29.95,West,261,0.0,6.0,64,0.00,,,0.00,Wunderground v.1.15,2013-06-22 23:20:00,
2013-06-22 19:25:00,84.8,70.8,29.95,West,261,0.0,6.0,63,0.00,,,0.00,Wunderground v.1.15,2013-06-22 23:25:00,
2013-06-22 19:35:00,84.5,71.0,29.95,West,261,0.0,6.0,64,0.00,,,0.00,Wunderground v.1.15,2013-06-22 23:35:00,
2013-06-22 19:40:00,84.3,70.8,29.95,West,261,0.0,6.0,64,0.00,,,0.00,Wunderground v.1.15,2013-06-22 23:40:00,
2013-06-22 19:45:00,83.9,70.9,29.95,West,261,0.0,6.0,65,0.00,,,0.00,Wunderground v.1.15,2013-06-22 23:45:00,
2013-06-22 19:50:00,83.4,69.9,29.96,West,261,0.0,6.0,64,0.00,,,0.00,Wunderground v.1.15,2013-06-22 23:50:00,
2013-06-22 19:55:00,83.2,70.2,29.96,West,261,0.0,6.0,65,0.00,,,0.00,Wunderground v.1.15,2013-06-22 23:55:00,
2013-06-22 20:00:00,82.9,70.4,29.96,West,261,0.0,6.0,66,0.00,,,0.00,Wunderground v.1.15,2013-06-23 00:00:00,
2013-06-22 20:05:00,82.5,69.5,29.96,West,261,0.0,6.0,65,0.00,,,0.00,Wunderground v.1.15,2013-06-23 00:05:00,
2013-06-22 20:15:00,81.9,69.0,29.96,West,261,0.0,6.0,65,0.00,,,0.00,Wunderground v.1.15,2013-06-23 00:15:00,
2013-06-22 20:20:00,81.5,69.0,29.96,West,261,0.0,6.0,66,0.00,,,0.00,Wunderground v.1.15,2013-06-23 00:20:00,
2013-06-22 20:25:00,81.2,68.3,29.96,West,261,0.0,6.0,65,0.00,,,0.00,Wunderground v.1.15,2013-06-23 00:25:00,
2013-06-22 20:30:00,80.8,67.9,29.96,West,261,0.0,6.0,65,0.00,,,0.00,Wunderground v.1.15,2013-06-23 00:30:00,
2013-06-22 20:35:00,80.4,68.0,29.96,West,261,0.0,6.0,66,0.00,,,0.00,Wunderground v.1.15,2013-06-23 00:35:00,
2013-06-22 20:40:00,80.0,67.6,29.96,West,261,0.0,6.0,66,0.00,,,0.00,Wunderground v.1.15,2013-06-23 00:40:00,
2013-06-22 20:45:00,79.6,67.7,29.96,West,261,0.0,6.0,67,0.00,,,0.00,Wunderground v.1.15,2013-06-23 00:45:00,
2013-06-22 20:55:00,79.0,67.5,29.97,West,261,0.0,6.0,68,0.00,,,0.00,Wunderground v.1.15,2013-06-23 00:55:00,
2013-06-22 21:00:00,78.5,67.5,29.97,West,261,0.0,6.0,69,0.00,,,0.00,Wunderground v.1.15,2013-06-23 01:00:00,
2013-06-22 21:10:00,77.6,67.4,29.97,West,261,0.0,6.0,71,0.00,,,0.00,Wunderground v.1.15,2013-06-23 01:10:00,
2013-06-22 21:15:00,77.3,67.6,29.97,West,261,0.0,6.0,72,0.00,,,0.00,Wunderground v.1.15,2013-06-23 01:15:00,
2013-06-22 21:20:00,77.0,67.7,29.97,West,261,0.0,6.0,73,0.00,,,0.00,Wunderground v.1.15,2013-06-23 01:20:00,
2013-06-22 21:25:00,76.7,67.4,29.97,West,261,0.0,6.0,73,0.00,,,0.00,Wunderground v.1.15,2013-06-23 01:25:00,
2013-06-22 21:30:00,76.4,67.9,29.98,West,261,0.0,6.0,75,0.00,,,0.00,Wunderground v.1.15,2013-06-23 01:30:00,
2013-06-22 21:35:00,76.1,68.0,29.98,West,261,0.0,6.0,76,0.00,,,0.00,Wunderground v.1.15,2013-06-23 01:35:00,
2013-06-22 21:40:00,76.0,68.3,29.98,West,261,0.0,6.0,77,0.00,,,0.00,Wunderground v.1.15,2013-06-23 01:40:00,
2013-06-22 21:45:00,75.8,68.1,29.98,West,261,0.0,6.0,77,0.00,,,0.00,Wunderground v.1.15,2013-06-23 01:45:00,
2013-06-22 21:50:00,75.7,68.0,29.99,West,261,0.0,6.0,77,0.00,,,0.00,Wunderground v.1.15,2013-06-23 01:50:00,
2013-06-22 22:00:00,76.0,68.3,29.99,West,261,0.0,6.0,77,0.00,,,0.00,Wunderground v.1.15,2013-06-23 02:00:00,
2013-06-22 22:05:00,76.1,68.4,29.99,West,261,0.0,6.0,77,0.00,,,0.00,Wunderground v.1.15,2013-06-23 02:05:00,
2013-06-22 22:10:00,76.1,68.4,29.99,West,261,0.0,6.0,77,0.00,,,0.00,Wunderground v.1.15,2013-06-23 02:10:00,
2013-06-22 22:15:00,76.1,68.4,29.99,West,261,0.0,6.0,77,0.00,,,0.00,Wunderground v.1.15,2013-06-23 02:15:00,
2013-06-22 22:20:00,76.0,68.3,29.99,West,261,0.0,6.0,77,0.00,,,0.00,Wunderground v.1.15,2013-06-23 02:20:00,
2013-06-22 22:25:00,76.0,68.3,29.99,West,261,0.0,6.0,77,0.00,,,0.00,Wunderground v.1.15,2013-06-23 02:25:00,
2013-06-22 22:35:00,75.7,68.4,29.99,West,261,0.0,6.0,78,0.00,,,0.00,Wunderground v.1.15,2013-06-23 02:35:00,
2013-06-22 22:40:00,75.5,68.2,29.99,West,261,0.0,6.0,78,0.00,,,0.00,Wunderground v.1.15,2013-06-23 02:40:00,
2013-06-22 22:45:00,75.4,68.4,29.99,West,261,0.0,6.0,79,0.00,,,0.00,Wunderground v.1.15,2013-06-23 02:45:00,
2013-06-22 22:50:00,75.3,68.3,29.99,West,261,0.0,6.0,79,0.00,,,0.00,Wunderground v.1.15,2013-06-23 02:50:00,
2013-06-22 22:55:00,75.2,68.2,29.99,West,261,0.0,6.0,79,0.00,,,0.00,Wunderground v.1.15,2013-06-23 02:55:00,
2013-06-22 23:00:00,75.2,68.2,29.99,West,261,0.0,6.0,79,0.00,,,0.00,Wunderground v.1.15,2013-06-23 03:00:00,
2013-06-22 23:05:00,75.1,68.1,29.99,West,261,0.0,6.0,79,0.00,,,0.00,Wunderground v.1.15,2013-06-23 03:05:00,
2013-06-22 23:15:00,75.1,68.5,29.99,West,261,0.0,6.0,80,0.00,,,0.00,Wunderground v.1.15,2013-06-23 03:15:00,
2013-06-22 23:20:00,75.1,68.5,29.99,West,261,0.0,6.0,80,0.00,,,0.00,Wunderground v.1.15,2013-06-23 03:20:00,
2013-06-22 23:25:00,75.1,68.5,29.99,West,261,0.0,6.0,80,0.00,,,0.00,Wunderground v.1.15,2013-06-23 03:25:00,
2013-06-22 23:30:00,75.1,68.5,29.99,West,261,0.0,6.0,80,0.00,,,0.00,Wunderground v.1.15,2013-06-23 03:30:00,
2013-06-22 23:35:00,75.1,68.5,29.99,West,261,0.0,6.0,80,0.00,,,0.00,Wunderground v.1.15,2013-06-23 03:35:00,
2013-06-22 23:40:00,75.0,68.4,29.99,West,261,0.0,6.0,80,0.00,,,0.00,Wunderground v.1.15,2013-06-23 03:40:00,
2013-06-22 23:45:00,74.9,68.7,29.99,West,261,0.0,6.0,81,0.00,,,0.00,Wunderground v.1.15,2013-06-23 03:45:00,
2013-06-22 23:55:00,74.7,68.5,29.99,West,261,0.0,6.0,81,0.00,,,0.00,Wunderground v.1.15,2013-06-23 03:55:00,